createdAt,value
2022-08-12T00:02:02.758Z,27.00
2022-08-12T00:04:53.229Z,26.70
2022-08-12T00:07:39.712Z,26.60
2022-08-12T00:10:26.212Z,26.60
2022-08-12T00:13:14.234Z,26.60
2022-08-12T00:16:03.632Z,26.60
2022-08-12T00:18:49.603Z,26.50
2022-08-12T00:21:38.663Z,27.00
2022-08-12T00:24:26.350Z,26.60
2022-08-12T00:27:14.181Z,26.40
2022-08-12T00:30:01.187Z,26.70
2022-08-12T00:32:54.704Z,26.30
2022-08-12T00:35:44.400Z,26.30
2022-08-12T00:38:31.232Z,26.30
2022-08-12T00:41:18.309Z,26.30
2022-08-12T00:43:48.418Z,26.30
2022-08-12T00:46:36.330Z,26.40
2022-08-12T00:49:04.491Z,26.30
2022-08-12T00:51:52.914Z,26.30
2022-08-12T00:54:20.662Z,26.30
2022-08-12T00:56:50.932Z,26.40
2022-08-12T00:59:18.442Z,26.30
2022-08-12T01:02:10.924Z,26.30
2022-08-12T01:04:57.837Z,26.30
2022-08-12T01:07:45.871Z,26.80
2022-08-12T01:10:33.212Z,26.30
2022-08-12T01:13:18.709Z,26.90
2022-08-12T01:15:51.370Z,26.30
2022-08-12T01:18:33.813Z,26.20
2022-08-12T01:21:28.438Z,26.20
2022-08-12T01:24:22.969Z,26.60
2022-08-12T01:26:55.000Z,26.10
2022-08-12T01:29:34.512Z,26.10
2022-08-12T01:32:08.692Z,26.10
2022-08-12T01:34:45.174Z,26.00
2022-08-12T01:37:14.123Z,26.60
2022-08-12T01:40:36.918Z,25.90
2022-08-12T01:42:51.049Z,25.80
2022-08-12T01:45:24.695Z,25.80
2022-08-12T01:48:30.198Z,25.80
2022-08-12T01:51:09.710Z,25.70
2022-08-12T01:54:04.244Z,25.60
2022-08-12T01:56:52.015Z,25.50
2022-08-12T01:59:47.236Z,25.50
2022-08-12T02:02:24.602Z,25.40
2022-08-12T02:05:16.615Z,25.40
2022-08-12T02:08:28.502Z,25.40
2022-08-12T02:11:21.331Z,25.40
2022-08-12T02:14:00.642Z,25.30
2022-08-12T02:16:52.966Z,25.30
2022-08-12T02:19:39.060Z,25.20
2022-08-12T02:22:28.242Z,25.30
2022-08-12T02:25:22.507Z,25.20
2022-08-12T02:27:52.469Z,25.20
2022-08-12T02:30:22.990Z,25.20
2022-08-12T02:32:52.263Z,25.20
2022-08-12T02:35:25.147Z,25.20
2022-08-12T02:37:55.006Z,25.20
2022-08-12T02:40:24.985Z,25.20
2022-08-12T02:43:12.541Z,25.20
2022-08-12T02:45:53.452Z,25.10
2022-08-12T02:48:33.995Z,25.10
2022-08-12T02:51:06.567Z,25.10
2022-08-12T02:53:37.067Z,25.10
2022-08-12T02:56:06.459Z,25.00
2022-08-12T02:58:36.067Z,25.00
2022-08-12T03:01:10.114Z,25.00
2022-08-12T03:03:39.769Z,25.60
2022-08-12T03:06:16.667Z,24.90
2022-08-12T03:08:51.861Z,24.90
2022-08-12T03:11:40.198Z,24.80
2022-08-12T03:14:14.224Z,24.80
2022-08-12T03:16:43.373Z,24.90
2022-08-12T03:19:10.770Z,24.80
2022-08-12T03:21:52.889Z,24.80
2022-08-12T03:24:27.366Z,25.40
2022-08-12T03:27:00.397Z,24.70
2022-08-12T03:29:33.558Z,24.60
2022-08-12T03:32:35.628Z,24.60
2022-08-12T03:35:07.834Z,24.60
2022-08-12T03:37:37.206Z,24.50
2022-08-12T03:40:08.659Z,24.40
2022-08-12T03:43:07.717Z,24.40
2022-08-12T03:45:58.162Z,24.60
2022-08-12T03:48:44.739Z,23.70
2022-08-12T03:51:30.782Z,24.10
2022-08-12T03:54:17.125Z,24.10
2022-08-12T03:57:03.519Z,24.00
2022-08-12T03:59:49.439Z,24.60
2022-08-12T04:02:17.157Z,23.90
2022-08-12T04:04:45.539Z,23.90
2022-08-12T04:07:14.630Z,23.90
2022-08-12T04:09:45.325Z,23.90
2022-08-12T04:12:33.292Z,23.90
2022-08-12T04:15:01.786Z,23.70
2022-08-12T04:17:29.239Z,23.70
2022-08-12T04:19:58.341Z,23.60
2022-08-12T04:22:29.633Z,23.50
2022-08-12T04:25:01.056Z,23.90
2022-08-12T04:27:31.470Z,23.70
2022-08-12T04:30:29.981Z,23.50
2022-08-12T04:32:52.059Z,23.40
2022-08-12T04:35:20.170Z,23.80
2022-08-12T04:37:59.266Z,23.40
2022-08-12T04:40:31.120Z,23.50
2022-08-12T04:43:00.976Z,23.40
2022-08-12T04:45:30.184Z,23.80
2022-08-12T04:47:58.279Z,23.20
2022-08-12T04:50:35.408Z,23.20
2022-08-12T04:53:06.551Z,23.20
2022-08-12T04:55:34.748Z,23.20
2022-08-12T04:58:02.434Z,23.20
2022-08-12T05:00:30.056Z,23.40
2022-08-12T05:02:57.646Z,23.20
2022-08-12T05:05:25.102Z,23.20
2022-08-12T05:07:54.200Z,23.70
2022-08-12T05:10:33.594Z,23.20
2022-08-12T05:13:08.193Z,23.60
2022-08-12T05:16:02.624Z,24.00
2022-08-12T05:18:29.437Z,23.40
2022-08-12T05:20:59.037Z,23.50
2022-08-12T05:23:26.835Z,23.40
2022-08-12T05:25:56.835Z,23.90
2022-08-12T05:28:26.770Z,23.50
2022-08-12T05:30:55.260Z,23.60
2022-08-12T05:33:37.394Z,23.60
2022-08-12T05:36:09.600Z,24.00
2022-08-12T05:38:55.319Z,23.70
2022-08-12T05:41:27.867Z,23.80
2022-08-12T05:43:57.622Z,23.90
2022-08-12T05:46:27.507Z,24.00
2022-08-12T05:48:56.351Z,24.10
2022-08-12T05:51:40.646Z,24.70
2022-08-12T05:54:11.041Z,24.50
2022-08-12T05:56:39.999Z,24.40
2022-08-12T05:59:08.606Z,25.10
2022-08-12T06:02:08.742Z,24.60
2022-08-12T06:04:24.094Z,24.70
2022-08-12T06:06:53.454Z,25.00
2022-08-12T06:09:22.377Z,24.80
2022-08-12T06:12:05.477Z,24.90
2022-08-12T06:14:37.022Z,25.00
2022-08-12T06:17:06.126Z,25.10
2022-08-12T06:20:25.712Z,25.80
2022-08-12T06:22:20.996Z,25.40
2022-08-12T06:24:49.724Z,25.40
2022-08-12T06:27:18.541Z,25.60
2022-08-12T06:30:09.955Z,25.70
2022-08-12T06:32:34.533Z,25.90
2022-08-12T06:35:23.955Z,26.10
2022-08-12T06:37:57.008Z,26.10
2022-08-12T06:40:43.994Z,26.30
2022-08-12T06:43:13.109Z,26.40
2022-08-12T06:45:49.110Z,26.60
2022-08-12T06:48:17.250Z,26.70
2022-08-12T06:50:46.011Z,27.30
2022-08-12T06:53:13.354Z,27.70
2022-08-12T06:55:58.162Z,27.20
2022-08-12T06:58:30.921Z,27.30
2022-08-12T07:01:00.100Z,27.60
2022-08-12T07:03:29.942Z,27.70
2022-08-12T07:06:03.312Z,28.30
2022-08-12T07:08:38.601Z,28.40
2022-08-12T07:11:15.434Z,28.40
2022-08-12T07:14:08.531Z,28.70
2022-08-12T07:16:53.641Z,28.90
2022-08-12T07:19:26.590Z,29.30
2022-08-12T07:22:09.839Z,29.50
2022-08-12T07:24:37.358Z,30.00
2022-08-12T07:27:04.879Z,29.90
2022-08-12T07:30:03.734Z,30.00
2022-08-12T07:32:23.622Z,30.30
2022-08-12T07:34:50.992Z,30.40
2022-08-12T07:37:18.510Z,30.60
2022-08-12T07:39:50.997Z,30.90
2022-08-12T07:42:29.534Z,31.10
2022-08-12T07:44:57.079Z,31.30
2022-08-12T07:47:25.054Z,31.50
2022-08-12T07:50:03.286Z,31.60
2022-08-12T07:52:31.969Z,32.20
2022-08-12T07:55:00.304Z,31.90
2022-08-12T07:57:27.765Z,32.00
2022-08-12T07:59:56.053Z,32.30
2022-08-12T08:02:26.713Z,32.50
2022-08-12T08:04:57.603Z,32.70
2022-08-12T08:07:27.476Z,33.00
2022-08-12T08:14:31.821Z,33.40
2022-08-12T08:25:02.505Z,34.10
2022-08-12T08:27:47.134Z,34.20
2022-08-12T08:30:16.490Z,34.30
2022-08-12T08:32:44.125Z,34.40
2022-08-12T08:35:23.162Z,34.60
2022-08-12T08:38:06.373Z,34.80
2022-08-12T08:40:57.663Z,35.00
2022-08-12T08:43:25.403Z,35.20
2022-08-12T08:46:13.556Z,35.50
2022-08-12T08:48:41.299Z,35.80
2022-08-12T08:51:08.687Z,36.00
2022-08-12T08:53:35.996Z,36.10
2022-08-12T08:56:23.030Z,36.00
2022-08-12T08:58:50.366Z,36.20
2022-08-12T09:01:22.368Z,36.30
2022-08-12T09:05:08.302Z,36.30
2022-08-12T09:06:53.456Z,36.40
2022-08-12T09:09:21.718Z,36.60
2022-08-12T09:12:12.173Z,36.80
2022-08-12T09:14:43.404Z,36.90
2022-08-12T09:17:21.225Z,37.00
2022-08-12T09:19:55.333Z,37.00
2022-08-12T09:22:28.591Z,37.00
2022-08-12T09:24:59.824Z,37.00
2022-08-12T09:28:30.965Z,37.10
2022-08-12T09:30:16.548Z,37.20
2022-08-12T09:33:05.152Z,37.40
2022-08-12T09:35:42.905Z,37.20
2022-08-12T09:38:29.892Z,37.10
2022-08-12T09:42:07.469Z,37.00
2022-08-12T09:44:05.478Z,36.90
2022-08-12T09:46:34.676Z,37.00
2022-08-12T09:49:04.058Z,36.40
2022-08-12T09:51:43.724Z,36.00
2022-08-12T09:54:34.167Z,35.80
2022-08-12T09:58:07.610Z,35.70
2022-08-12T10:00:13.044Z,35.90
2022-08-12T10:02:45.495Z,35.80
2022-08-12T10:05:23.136Z,35.30
2022-08-12T10:08:14.006Z,35.10
2022-08-12T10:11:07.320Z,34.90
2022-08-12T10:13:43.195Z,34.80
2022-08-12T10:16:28.276Z,34.60
2022-08-12T10:19:05.841Z,34.60
2022-08-12T10:21:45.104Z,34.50
2022-08-12T10:24:20.230Z,34.40
2022-08-12T10:27:06.992Z,34.30
2022-08-12T10:30:40.963Z,34.30
2022-08-12T10:32:45.078Z,34.10
2022-08-12T10:35:17.933Z,34.00
2022-08-12T10:38:38.882Z,33.90
2022-08-12T10:40:54.481Z,33.80
2022-08-12T10:43:56.005Z,33.70
2022-08-12T10:46:30.867Z,33.70
2022-08-12T10:49:06.500Z,33.90
2022-08-12T10:52:32.762Z,33.50
2022-08-12T10:54:41.627Z,33.40
2022-08-12T10:57:09.618Z,33.30
2022-08-12T11:00:32.010Z,33.10
2022-08-12T11:04:35.744Z,32.80
2022-08-12T11:07:02.589Z,32.70
2022-08-12T11:08:34.232Z,32.50
2022-08-12T11:10:57.034Z,32.50
2022-08-12T11:13:46.765Z,32.50
2022-08-12T11:16:22.053Z,32.50
2022-08-12T11:18:54.705Z,32.30
2022-08-12T11:21:56.094Z,32.20
2022-08-12T11:24:29.984Z,32.20
2022-08-12T11:27:00.475Z,32.20
2022-08-12T11:30:00.547Z,32.20
2022-08-12T11:32:16.327Z,32.20
2022-08-12T11:34:53.264Z,32.30
2022-08-12T11:37:25.929Z,32.20
2022-08-12T11:42:39.608Z,32.20
2022-08-12T11:45:16.280Z,32.20
2022-08-12T11:47:44.840Z,32.20
2022-08-12T11:50:19.009Z,32.20
2022-08-12T11:52:56.572Z,32.20
2022-08-12T11:55:27.460Z,32.20
2022-08-12T11:58:14.567Z,32.30
2022-08-12T12:03:45.984Z,32.40
2022-08-12T12:06:18.063Z,32.40
2022-08-12T12:08:51.296Z,32.40
2022-08-12T12:11:21.422Z,32.40
2022-08-12T12:14:08.432Z,32.40
2022-08-12T12:16:40.083Z,32.40
2022-08-12T12:19:10.222Z,32.30
2022-08-12T12:21:47.557Z,32.30
2022-08-12T12:24:21.681Z,32.30
2022-08-12T12:26:59.737Z,32.30
2022-08-12T12:30:13.327Z,32.20
2022-08-12T12:32:18.409Z,32.50
2022-08-12T12:35:18.228Z,32.20
2022-08-12T12:38:03.643Z,32.30
2022-08-12T12:40:22.905Z,32.30
2022-08-12T12:43:00.573Z,32.30
2022-08-12T12:45:35.553Z,32.30
2022-08-12T12:48:07.940Z,32.30
2022-08-12T12:50:45.527Z,32.30
2022-08-12T12:54:05.916Z,32.40
2022-08-12T12:56:33.886Z,32.40
2022-08-12T12:59:03.661Z,32.50
2022-08-12T13:01:35.177Z,32.40
2022-08-12T13:04:08.209Z,33.00
2022-08-12T13:06:41.156Z,32.40
2022-08-12T13:09:12.918Z,32.40
2022-08-12T13:11:42.119Z,32.40
2022-08-12T13:14:28.803Z,32.40
2022-08-12T13:17:02.865Z,32.40
2022-08-12T13:19:42.335Z,32.50
2022-08-12T13:22:19.238Z,32.50
2022-08-12T13:24:55.008Z,32.60
2022-08-12T13:27:35.180Z,32.60
2022-08-12T13:30:10.760Z,32.60
2022-08-12T13:32:57.119Z,32.10
2022-08-12T13:36:02.845Z,32.60
2022-08-12T13:38:26.659Z,32.70
2022-08-12T13:41:03.381Z,32.70
2022-08-12T13:43:40.779Z,32.80
2022-08-12T13:46:13.368Z,32.80
2022-08-12T13:48:45.282Z,32.90
2022-08-12T13:51:14.322Z,32.90
2022-08-12T13:53:55.248Z,33.00
2022-08-12T13:56:34.648Z,33.10
2022-08-12T13:59:07.894Z,33.00
2022-08-12T14:01:40.429Z,33.10
2022-08-12T14:04:11.404Z,33.10
2022-08-12T14:06:40.752Z,33.20
2022-08-12T14:09:17.391Z,33.20
2022-08-12T14:11:59.029Z,33.20
2022-08-12T14:14:31.252Z,33.10
2022-08-12T14:17:09.759Z,33.20
2022-08-12T14:20:00.541Z,33.10
2022-08-12T14:22:28.675Z,33.10
2022-08-12T14:24:58.719Z,33.00
2022-08-12T14:28:03.942Z,33.00
2022-08-12T14:30:24.066Z,33.60
2022-08-12T14:32:57.679Z,33.00
2022-08-12T14:35:25.046Z,33.10
2022-08-12T14:37:55.974Z,33.10
2022-08-12T14:40:29.129Z,33.10
2022-08-12T14:42:58.303Z,33.10
2022-08-12T14:45:44.368Z,33.10
2022-08-12T14:48:19.248Z,33.10
2022-08-12T14:51:02.717Z,33.10
2022-08-12T14:56:59.779Z,33.80
2022-08-12T14:59:57.545Z,33.20
2022-08-12T15:02:28.405Z,33.20
2022-08-12T15:04:58.767Z,33.30
2022-08-12T15:07:43.795Z,33.30
2022-08-12T15:10:31.635Z,33.20
2022-08-12T15:13:07.141Z,33.10
2022-08-12T15:15:45.741Z,33.00
2022-08-12T15:18:21.219Z,32.90
2022-08-12T15:20:52.266Z,32.90
2022-08-12T15:23:29.205Z,32.90
2022-08-12T15:26:11.346Z,33.00
2022-08-12T15:28:54.163Z,33.00
2022-08-12T15:31:28.374Z,33.70
2022-08-12T15:34:09.076Z,33.10
2022-08-12T15:36:55.122Z,33.40
2022-08-12T15:39:22.986Z,33.20
2022-08-12T15:41:55.237Z,33.20
2022-08-12T15:44:38.460Z,33.20
2022-08-12T15:47:10.539Z,33.30
2022-08-12T15:49:54.826Z,33.30
2022-08-12T15:52:28.415Z,33.30
2022-08-12T15:55:06.269Z,33.30
2022-08-12T15:57:41.333Z,33.20
2022-08-12T16:00:32.006Z,33.20
2022-08-12T16:02:58.711Z,33.20
2022-08-12T16:06:12.495Z,33.10
2022-08-12T16:08:24.069Z,33.10
2022-08-12T16:10:56.309Z,33.70
2022-08-12T16:13:34.319Z,33.70
2022-08-12T16:16:12.454Z,33.20
2022-08-12T16:18:52.600Z,33.10
2022-08-12T16:21:52.843Z,33.10
2022-08-12T16:24:43.690Z,33.00
2022-08-12T16:27:11.324Z,32.90
2022-08-12T16:29:53.320Z,32.90
2022-08-12T16:32:24.248Z,33.40
2022-08-12T16:34:56.066Z,32.90
2022-08-12T16:37:32.204Z,32.90
2022-08-12T16:40:04.943Z,32.80
2022-08-12T16:42:53.897Z,32.80
2022-08-12T16:46:04.993Z,32.70
2022-08-12T16:48:35.233Z,32.70
2022-08-12T16:51:10.450Z,32.70
2022-08-12T16:53:44.331Z,32.80
2022-08-12T16:56:16.948Z,32.80
2022-08-12T16:58:46.891Z,32.80
2022-08-12T17:01:15.531Z,32.80
2022-08-12T17:03:45.619Z,32.90
2022-08-12T17:06:27.474Z,32.90
2022-08-12T17:09:08.492Z,32.80
2022-08-12T17:11:44.276Z,32.80
2022-08-12T17:14:11.778Z,32.80
2022-08-12T17:16:40.271Z,32.80
2022-08-12T17:19:09.405Z,32.80
2022-08-12T17:21:40.865Z,32.80
2022-08-12T17:24:21.470Z,32.80
2022-08-12T17:26:54.162Z,32.80
2022-08-12T17:29:24.270Z,32.80
2022-08-12T17:32:10.863Z,32.80
2022-08-12T17:34:58.314Z,32.90
2022-08-12T17:37:27.928Z,32.90
2022-08-12T17:40:11.984Z,32.80
2022-08-12T17:42:47.571Z,32.80
2022-08-12T17:45:20.051Z,32.80
2022-08-12T17:48:05.365Z,32.70
2022-08-12T17:50:35.797Z,32.70
2022-08-12T17:53:03.884Z,32.70
2022-08-12T17:55:43.715Z,32.70
2022-08-12T17:58:17.546Z,32.70
2022-08-12T18:00:45.663Z,32.60
2022-08-12T18:04:04.578Z,32.60
2022-08-12T18:06:14.089Z,32.60
2022-08-12T18:08:54.220Z,32.60
2022-08-12T18:12:04.026Z,32.60
2022-08-12T18:14:32.689Z,32.50
2022-08-12T18:17:05.652Z,32.50
2022-08-12T18:20:05.252Z,32.40
2022-08-12T18:22:31.537Z,32.40
2022-08-12T18:25:06.744Z,32.40
2022-08-12T18:27:46.610Z,32.30
2022-08-12T18:30:20.503Z,32.90
2022-08-12T18:33:05.054Z,32.30
2022-08-12T18:35:53.008Z,32.20
2022-08-12T18:38:24.865Z,32.20
2022-08-12T18:41:21.569Z,32.20
2022-08-12T18:44:02.690Z,32.20
2022-08-12T18:46:46.872Z,32.10
2022-08-12T18:49:22.659Z,32.10
2022-08-12T18:52:03.858Z,32.10
2022-08-12T18:54:53.313Z,32.10
2022-08-12T18:58:06.090Z,32.10
2022-08-12T19:00:20.120Z,32.00
2022-08-12T19:02:53.325Z,32.00
2022-08-12T19:05:23.254Z,32.00
2022-08-12T19:08:00.593Z,32.00
2022-08-12T19:10:31.606Z,32.00
2022-08-12T19:13:23.434Z,31.90
2022-08-12T19:15:57.422Z,31.90
2022-08-12T19:18:30.219Z,31.80
2022-08-12T19:21:11.687Z,32.20
2022-08-12T19:24:04.524Z,31.80
2022-08-12T19:26:34.897Z,31.70
2022-08-12T19:29:04.904Z,31.60
2022-08-12T19:31:58.839Z,31.70
2022-08-12T19:37:38.330Z,31.60
2022-08-12T19:40:31.879Z,31.50
2022-08-12T19:42:57.730Z,31.40
2022-08-12T19:45:41.945Z,31.40
2022-08-12T19:48:16.646Z,31.30
2022-08-12T19:50:49.808Z,31.20
2022-08-12T19:53:18.632Z,31.10
2022-08-12T19:55:51.891Z,31.00
2022-08-12T19:58:22.135Z,30.90
2022-08-12T20:00:54.784Z,30.80
2022-08-12T20:03:38.906Z,31.40
2022-08-12T20:06:15.664Z,30.60
2022-08-12T20:08:56.381Z,30.60
2022-08-12T20:12:14.050Z,30.50
2022-08-12T20:14:18.919Z,30.40
2022-08-12T20:16:52.608Z,30.30
2022-08-12T20:19:52.910Z,30.20
2022-08-12T20:22:24.495Z,30.00
2022-08-12T20:25:06.727Z,29.90
2022-08-12T20:28:04.007Z,29.80
2022-08-12T20:30:37.202Z,29.80
2022-08-12T20:33:18.980Z,29.70
2022-08-12T20:36:06.409Z,29.60
2022-08-12T20:38:40.295Z,29.50
2022-08-12T20:41:19.097Z,29.50
2022-08-12T20:43:52.358Z,29.90
2022-08-12T20:46:21.608Z,29.30
2022-08-12T20:48:55.342Z,29.20
2022-08-12T20:51:28.062Z,29.50
2022-08-12T20:54:08.772Z,29.30
2022-08-12T20:56:37.348Z,28.90
2022-08-12T20:59:19.770Z,28.90
2022-08-12T21:01:48.897Z,28.70
2022-08-12T21:04:36.908Z,28.70
2022-08-12T21:07:09.443Z,28.50
2022-08-12T21:09:44.115Z,28.50
2022-08-12T21:12:31.595Z,28.30
2022-08-12T21:15:23.837Z,28.30
2022-08-12T21:18:09.639Z,28.10
2022-08-12T21:20:52.962Z,28.40
2022-08-12T21:23:22.547Z,28.20
2022-08-12T21:25:56.545Z,27.90
2022-08-12T21:28:30.802Z,28.50
2022-08-12T21:32:36.135Z,27.80
2022-08-12T21:34:07.232Z,27.80
2022-08-12T21:36:43.394Z,27.70
2022-08-12T21:39:21.693Z,27.60
2022-08-12T21:41:52.130Z,27.90
2022-08-12T21:45:43.554Z,27.50
2022-08-12T21:47:20.838Z,27.50
2022-08-12T21:50:02.487Z,28.00
2022-08-12T21:52:35.669Z,27.60
2022-08-12T21:55:18.936Z,27.30
2022-08-12T21:57:53.122Z,27.30
2022-08-12T22:00:32.075Z,27.20
2022-08-12T22:04:01.863Z,27.10
2022-08-12T22:06:30.595Z,27.10
2022-08-12T22:09:07.413Z,27.30
2022-08-12T22:11:41.246Z,26.90
2022-08-12T22:14:10.193Z,26.70
2022-08-12T22:16:46.844Z,26.80
2022-08-12T22:19:19.161Z,26.80
2022-08-12T22:21:52.335Z,26.70
2022-08-12T22:24:26.919Z,27.10
2022-08-12T22:27:08.123Z,26.60
2022-08-12T22:30:04.302Z,27.00
2022-08-12T22:32:33.602Z,26.40
2022-08-12T22:35:29.442Z,26.40
2022-08-12T22:38:15.464Z,26.30
2022-08-12T22:40:49.292Z,26.20
2022-08-12T22:43:36.688Z,26.30
2022-08-12T22:46:26.676Z,26.20
2022-08-12T22:48:57.974Z,26.10
2022-08-12T22:51:25.649Z,26.10
2022-08-12T22:53:55.410Z,26.20
2022-08-12T22:56:30.970Z,26.10
2022-08-12T22:59:03.141Z,26.10
2022-08-12T23:01:52.667Z,26.10
2022-08-12T23:04:34.659Z,26.00
2022-08-12T23:07:05.483Z,26.00
2022-08-12T23:09:44.917Z,26.00
2022-08-12T23:12:37.391Z,26.00
2022-08-12T23:15:16.927Z,25.90
2022-08-12T23:17:54.417Z,25.80
2022-08-12T23:20:27.212Z,25.60
2022-08-12T23:23:09.439Z,25.80
2022-08-12T23:25:54.361Z,25.90
2022-08-12T23:28:42.764Z,26.40
2022-08-12T23:31:11.213Z,26.40
2022-08-12T23:34:00.531Z,25.80
2022-08-12T23:36:38.979Z,25.80
2022-08-12T23:40:14.411Z,26.40
2022-08-12T23:42:16.855Z,26.10
2022-08-12T23:44:48.653Z,25.70
2022-08-12T23:47:21.770Z,25.70
2022-08-12T23:49:58.021Z,25.60
2022-08-12T23:52:33.838Z,25.60
2022-08-12T23:55:07.630Z,26.00
2022-08-12T23:58:20.677Z,25.50
